createdAt,value
2022-09-26T00:00:32.157Z,17.45
2022-09-26T00:04:33.091Z,17.74
2022-09-26T00:08:33.444Z,17.72
2022-09-26T00:12:35.723Z,17.58
2022-09-26T00:16:35.682Z,17.83
2022-09-26T00:20:35.415Z,18.25
2022-09-26T00:24:35.250Z,18.37
2022-09-26T00:28:37.478Z,18.53
2022-09-26T00:32:37.235Z,18.45
2022-09-26T00:36:38.720Z,18.18
2022-09-26T00:40:38.852Z,18.04
2022-09-26T00:44:48.487Z,18.00
2022-09-26T00:48:51.231Z,18.12
2022-09-26T00:52:58.537Z,17.87
2022-09-26T00:57:03.780Z,17.83
2022-09-26T01:01:06.094Z,17.46
2022-09-26T01:05:09.146Z,17.11
2022-09-26T01:09:12.298Z,16.70
2022-09-26T01:13:12.839Z,16.45
2022-09-26T01:17:15.566Z,15.98
2022-09-26T01:21:45.976Z,16.27
2022-09-26T01:26:14.818Z,16.59
2022-09-26T01:30:18.732Z,16.89
2022-09-26T01:34:27.639Z,17.57
2022-09-26T01:38:37.117Z,17.49
2022-09-26T01:42:45.265Z,17.65
2022-09-26T01:46:53.717Z,17.64
2022-09-26T01:50:57.740Z,17.52
2022-09-26T01:55:03.818Z,17.45
2022-09-26T01:59:08.728Z,17.54
2022-09-26T02:03:15.410Z,17.65
2022-09-26T02:07:19.029Z,17.25
2022-09-26T02:11:21.342Z,17.11
2022-09-26T02:15:24.071Z,16.73
2022-09-26T02:19:30.184Z,16.70
2022-09-26T02:23:29.592Z,17.08
2022-09-26T02:27:30.384Z,17.47
2022-09-26T02:31:35.217Z,17.59
2022-09-26T02:35:53.880Z,17.38
2022-09-26T02:39:55.676Z,17.31
2022-09-26T02:44:13.886Z,17.33
2022-09-26T02:48:25.639Z,17.04
2022-09-26T02:52:37.242Z,16.83
2022-09-26T02:56:50.449Z,16.84
2022-09-26T03:01:01.379Z,16.90
2022-09-26T03:05:05.839Z,16.68
2022-09-26T03:09:10.113Z,16.58
2022-09-26T03:13:14.331Z,16.64
2022-09-26T03:17:18.338Z,16.52
2022-09-26T03:21:20.153Z,16.10
2022-09-26T03:25:25.593Z,16.58
2022-09-26T03:29:25.144Z,16.60
2022-09-26T03:33:25.067Z,16.34
2022-09-26T03:37:26.598Z,16.56
2022-09-26T03:41:29.283Z,16.43
2022-09-26T03:45:30.023Z,16.73
2022-09-26T03:49:30.264Z,16.80
2022-09-26T03:53:46.879Z,16.52
2022-09-26T03:57:49.991Z,16.41
2022-09-26T04:01:51.427Z,15.99
2022-09-26T04:05:51.240Z,15.72
2022-09-26T04:09:50.485Z,15.41
2022-09-26T04:13:54.204Z,14.94
2022-09-26T04:17:54.711Z,14.50
2022-09-26T04:21:55.673Z,14.56
2022-09-26T04:25:56.629Z,14.85
2022-09-26T04:29:59.137Z,15.10
2022-09-26T04:33:59.997Z,14.86
2022-09-26T04:38:00.083Z,14.93
2022-09-26T04:42:00.526Z,15.00
2022-09-26T04:46:02.235Z,15.55
2022-09-26T04:50:02.239Z,16.37
2022-09-26T04:54:07.328Z,16.90
2022-09-26T04:58:13.961Z,17.36
2022-09-26T05:02:15.904Z,17.51
2022-09-26T05:06:18.005Z,17.51
2022-09-26T05:10:20.293Z,17.83
2022-09-26T05:14:20.939Z,18.00
2022-09-26T05:18:24.108Z,18.09
2022-09-26T05:22:24.004Z,18.51
2022-09-26T05:26:28.040Z,18.82
2022-09-26T05:30:30.907Z,18.70
2022-09-26T05:34:32.793Z,18.13
2022-09-26T05:38:32.609Z,17.83
2022-09-26T05:42:32.195Z,17.81
2022-09-26T05:46:33.904Z,17.71
2022-09-26T05:50:43.434Z,17.98
2022-09-26T05:54:44.812Z,18.22
2022-09-26T05:58:45.871Z,18.53
2022-09-26T06:02:46.565Z,19.01
2022-09-26T06:06:52.193Z,19.01
2022-09-26T06:10:51.558Z,19.70
2022-09-26T06:14:53.492Z,20.29
2022-09-26T06:18:55.435Z,20.63
2022-09-26T06:22:57.706Z,21.29
2022-09-26T06:26:57.531Z,21.91
2022-09-26T06:30:58.160Z,21.86
2022-09-26T06:34:59.692Z,21.64
2022-09-26T06:39:01.447Z,21.85
2022-09-26T06:43:02.479Z,22.16
2022-09-26T06:47:05.065Z,22.24
2022-09-26T06:51:05.902Z,22.46
2022-09-26T06:55:09.237Z,22.62
2022-09-26T06:59:11.185Z,22.75
2022-09-26T07:03:13.389Z,22.07
2022-09-26T07:07:13.497Z,21.76
2022-09-26T07:11:35.212Z,21.57
2022-09-26T07:15:37.749Z,21.41
2022-09-26T07:19:38.190Z,21.76
2022-09-26T07:23:38.692Z,21.49
2022-09-26T07:27:40.972Z,21.95
2022-09-26T07:31:45.846Z,22.37
2022-09-26T07:35:46.153Z,22.66
2022-09-26T07:39:47.443Z,22.73
2022-09-26T07:48:31.379Z,22.94
2022-09-26T07:52:39.765Z,23.47
2022-09-26T07:56:41.663Z,23.96
2022-09-26T08:00:47.480Z,23.14
2022-09-26T08:04:50.650Z,23.21
2022-09-26T08:08:57.860Z,23.23
2022-09-26T08:13:01.373Z,23.13
2022-09-26T08:17:04.393Z,23.54
2022-09-26T08:21:07.652Z,23.51
2022-09-26T08:25:08.624Z,23.81
2022-09-26T08:29:12.212Z,24.37
2022-09-26T08:33:15.191Z,24.79
2022-09-26T08:37:16.388Z,24.98
2022-09-26T08:41:32.362Z,25.11
2022-09-26T08:46:01.398Z,24.92
2022-09-26T08:50:17.047Z,24.67
2022-09-26T08:54:19.925Z,24.10
2022-09-26T08:58:28.438Z,24.12
2022-09-26T09:02:37.567Z,24.30
2022-09-26T09:06:40.814Z,24.58
2022-09-26T09:10:47.983Z,24.73
2022-09-26T09:15:24.581Z,24.57
2022-09-26T09:19:36.865Z,24.57
2022-09-26T09:23:53.233Z,24.42
2022-09-26T09:28:08.782Z,24.44
2022-09-26T09:32:14.347Z,24.27
2022-09-26T09:36:18.568Z,24.55
2022-09-26T09:40:29.514Z,24.80
2022-09-26T09:44:46.742Z,24.55
2022-09-26T09:48:49.433Z,24.79
2022-09-26T09:53:00.664Z,24.59
2022-09-26T09:57:26.453Z,24.15
2022-09-26T10:01:33.596Z,24.43
2022-09-26T10:05:41.363Z,24.69
2022-09-26T10:09:45.524Z,24.82
2022-09-26T10:14:06.856Z,25.14
2022-09-26T10:18:25.744Z,25.57
2022-09-26T10:22:36.867Z,25.68
2022-09-26T10:26:39.223Z,25.71
2022-09-26T10:30:51.219Z,25.65
2022-09-26T10:35:07.403Z,25.63
2022-09-26T10:39:35.684Z,25.65
2022-09-26T10:43:38.518Z,25.99
2022-09-26T10:47:41.099Z,26.17
2022-09-26T10:51:51.504Z,26.17
2022-09-26T10:55:57.246Z,26.30
2022-09-26T11:00:00.545Z,26.40
2022-09-26T11:04:41.539Z,26.55
2022-09-26T11:08:52.291Z,27.19
2022-09-26T11:13:03.001Z,27.10
2022-09-26T11:17:03.055Z,27.42
2022-09-26T11:21:28.188Z,27.78
2022-09-26T11:25:35.801Z,28.10
2022-09-26T11:29:48.769Z,28.33
2022-09-26T11:33:48.756Z,28.53
2022-09-26T11:38:07.480Z,28.44
2022-09-26T11:42:24.596Z,28.18
2022-09-26T11:46:39.634Z,28.41
2022-09-26T11:50:55.802Z,28.21
2022-09-26T11:55:17.652Z,27.82
2022-09-26T11:59:31.286Z,27.85
2022-09-26T12:04:01.574Z,27.76
2022-09-26T12:08:20.097Z,28.16
2022-09-26T12:12:29.229Z,28.64
2022-09-26T12:16:36.834Z,28.54
2022-09-26T12:20:44.154Z,28.50
2022-09-26T12:24:52.599Z,28.39
2022-09-26T12:29:09.444Z,28.39
2022-09-26T12:33:32.100Z,28.33
2022-09-26T12:37:49.010Z,27.98
2022-09-26T12:42:29.226Z,28.21
2022-09-26T12:46:49.035Z,28.21
2022-09-26T12:51:04.148Z,28.33
2022-09-26T12:55:19.406Z,28.45
2022-09-26T12:59:39.071Z,28.79
2022-09-26T13:04:11.532Z,28.96
2022-09-26T13:08:21.146Z,28.85
2022-09-26T13:12:41.646Z,28.99
2022-09-26T13:17:15.472Z,28.90
2022-09-26T13:21:24.605Z,28.79
2022-09-26T13:25:32.625Z,28.77
2022-09-26T13:29:38.083Z,28.44
2022-09-26T13:33:44.445Z,28.60
2022-09-26T13:38:00.651Z,28.16
2022-09-26T13:42:10.439Z,28.45
2022-09-26T13:46:34.144Z,28.33
2022-09-26T13:50:55.443Z,28.39
2022-09-26T13:55:23.757Z,28.47
2022-09-26T14:00:22.084Z,28.96
2022-09-26T14:04:42.211Z,28.70
2022-09-26T14:09:29.352Z,28.23
2022-09-26T14:13:39.329Z,27.98
2022-09-26T14:18:29.822Z,28.13
2022-09-26T14:22:37.517Z,28.35
2022-09-26T14:26:44.724Z,28.06
2022-09-26T14:31:34.091Z,28.26
2022-09-26T14:35:41.341Z,28.32
2022-09-26T14:39:45.809Z,28.49
2022-09-26T14:43:46.648Z,28.63
2022-09-26T14:47:48.358Z,28.80
2022-09-26T14:51:59.990Z,28.71
2022-09-26T14:56:06.014Z,28.76
2022-09-26T15:00:36.588Z,28.78
2022-09-26T15:04:37.125Z,28.59
2022-09-26T15:08:40.017Z,28.65
2022-09-26T15:12:47.852Z,28.50
2022-09-26T15:16:54.844Z,28.68
2022-09-26T15:21:04.150Z,28.95
2022-09-26T15:25:21.470Z,29.05
2022-09-26T15:29:29.299Z,28.73
2022-09-26T15:33:42.953Z,28.67
2022-09-26T15:37:45.845Z,28.35
2022-09-26T15:42:27.414Z,28.20
2022-09-26T15:46:32.560Z,28.14
2022-09-26T15:55:27.667Z,27.49
2022-09-26T15:59:37.380Z,27.17
2022-09-26T16:03:47.858Z,26.98
2022-09-26T16:07:54.940Z,27.11
2022-09-26T16:12:02.269Z,27.15
2022-09-26T16:16:11.251Z,27.06
2022-09-26T16:20:27.661Z,26.87
2022-09-26T16:24:33.893Z,26.86
2022-09-26T16:28:47.771Z,26.60
2022-09-26T16:32:53.786Z,26.17
2022-09-26T16:36:55.643Z,25.69
2022-09-26T16:40:57.446Z,25.63
2022-09-26T16:44:57.900Z,25.72
2022-09-26T16:49:02.935Z,25.43
2022-09-26T16:53:06.057Z,25.37
2022-09-26T16:57:08.016Z,25.34
2022-09-26T17:01:20.697Z,25.13
2022-09-26T17:05:31.803Z,24.75
2022-09-26T17:09:34.210Z,25.18
2022-09-26T17:13:39.713Z,25.26
2022-09-26T17:17:39.957Z,25.31
2022-09-26T17:21:42.447Z,25.40
2022-09-26T17:25:47.915Z,25.25
2022-09-26T17:29:51.229Z,25.24
2022-09-26T17:33:53.687Z,24.90
2022-09-26T17:37:56.692Z,24.72
2022-09-26T17:42:06.893Z,24.52
2022-09-26T17:46:15.188Z,24.74
2022-09-26T17:50:26.503Z,24.26
2022-09-26T17:54:42.346Z,23.25
2022-09-26T17:58:46.723Z,22.74
2022-09-26T18:02:49.088Z,22.70
2022-09-26T18:06:49.126Z,22.87
2022-09-26T18:11:03.330Z,22.91
2022-09-26T18:15:05.160Z,22.78
2022-09-26T18:19:07.757Z,22.84
2022-09-26T18:23:09.678Z,22.99
2022-09-26T18:27:15.983Z,23.49
2022-09-26T18:31:15.461Z,24.00
2022-09-26T18:35:18.199Z,24.12
2022-09-26T18:39:21.504Z,24.20
2022-09-26T18:43:25.416Z,24.15
2022-09-26T18:47:27.806Z,23.83
2022-09-26T18:51:28.015Z,23.95
2022-09-26T18:55:45.499Z,23.94
2022-09-26T18:59:47.396Z,23.81
2022-09-26T19:03:48.908Z,23.84
2022-09-26T19:07:50.336Z,23.53
2022-09-26T19:11:51.307Z,22.94
2022-09-26T19:15:53.537Z,22.72
2022-09-26T19:19:52.897Z,22.45
2022-09-26T19:23:53.537Z,22.69
2022-09-26T19:27:54.279Z,22.62
2022-09-26T19:31:56.468Z,22.17
2022-09-26T19:35:56.446Z,22.10
2022-09-26T19:39:57.418Z,21.98
2022-09-26T19:43:57.354Z,21.69
2022-09-26T19:47:59.538Z,22.12
2022-09-26T19:52:00.786Z,22.06
2022-09-26T19:56:01.004Z,21.84
2022-09-26T20:00:00.847Z,21.80
2022-09-26T20:04:03.137Z,21.76
2022-09-26T20:08:03.243Z,21.79
2022-09-26T20:12:03.418Z,22.15
2022-09-26T20:16:03.539Z,22.34
2022-09-26T20:20:07.567Z,22.19
2022-09-26T20:24:11.450Z,21.95
2022-09-26T20:28:12.460Z,22.09
2022-09-26T20:32:15.469Z,22.17
2022-09-26T20:36:21.337Z,21.79
2022-09-26T20:40:23.847Z,21.39
2022-09-26T20:44:27.950Z,21.42
2022-09-26T20:48:29.752Z,21.32
2022-09-26T20:52:32.519Z,21.16
2022-09-26T20:56:32.327Z,21.10
2022-09-26T21:00:32.206Z,21.56
2022-09-26T21:04:33.596Z,21.93
2022-09-26T21:08:35.478Z,22.45
2022-09-26T21:12:35.349Z,22.88
2022-09-26T21:16:34.697Z,23.13
2022-09-26T21:20:35.797Z,23.14
2022-09-26T21:24:39.247Z,23.06
2022-09-26T21:28:39.855Z,22.86
2022-09-26T21:32:39.737Z,22.74
2022-09-26T21:36:41.555Z,22.27
2022-09-26T21:40:44.864Z,22.10
2022-09-26T21:44:48.103Z,21.74
2022-09-26T21:48:47.936Z,21.67
2022-09-26T21:52:51.339Z,21.96
2022-09-26T21:56:56.609Z,22.33
2022-09-26T22:00:57.428Z,22.67
2022-09-26T22:04:57.216Z,22.90
2022-09-26T22:08:57.047Z,22.88
2022-09-26T22:12:59.103Z,22.60
2022-09-26T22:16:59.539Z,22.34
2022-09-26T22:20:59.544Z,21.93
2022-09-26T22:25:02.969Z,21.25
2022-09-26T22:29:04.858Z,20.70
2022-09-26T22:33:04.630Z,20.82
2022-09-26T22:37:03.840Z,21.28
2022-09-26T22:41:05.901Z,21.00
2022-09-26T22:45:07.912Z,20.92
2022-09-26T22:49:07.926Z,21.39
2022-09-26T22:53:08.409Z,21.56
2022-09-26T22:57:08.264Z,21.81
2022-09-26T23:01:13.177Z,22.05
2022-09-26T23:05:13.034Z,22.02
2022-09-26T23:09:12.804Z,22.24
2022-09-26T23:13:12.593Z,21.83
2022-09-26T23:17:14.747Z,21.98
2022-09-26T23:21:16.646Z,21.79
2022-09-26T23:25:16.856Z,22.23
2022-09-26T23:29:16.311Z,22.17
2022-09-26T23:33:18.658Z,22.24
2022-09-26T23:37:17.884Z,22.41
2022-09-26T23:41:17.916Z,22.43
2022-09-26T23:45:17.833Z,22.49
2022-09-26T23:49:19.739Z,22.67
2022-09-26T23:53:19.837Z,22.35
2022-09-26T23:57:20.138Z,22.32
